Conover, Ohio
Current Conditions -  °F | °C
As of 2:56 PM on Wednesday 17 Dec 2014 (Local Time) from KDAY Reporting Station
Overcast Overcast  
Wind Chill: 19°   Ceiling: 1300
Heat Index: 28°   Visibility: 10mi
Dew Point: 23°   Wind: 10mph
Humidity: 81%   Direction: 280°W
Pressure: 30.19"   Gusts: NA
Location:  40.14°N, 84.05°W
Report Text: KDAY 171956Z 28009KT 10SM OVC013 M02/M05 A3019 RMK AO2 SLP233 T10221050
Loading
Personal Weather Stations






























Interactive Weather Map New forecast layout! Learn more

10-Day Weather Forecast

Advertisements
Track Severe Weather on mobile